createdAt,value
2022-08-21T10:46:22.018Z,23.49
2022-08-21T10:51:35.449Z,23.51
2022-08-21T10:56:33.469Z,23.58
2022-08-21T11:01:36.451Z,23.66
2022-08-21T11:06:33.123Z,23.81
2022-08-21T11:11:36.672Z,23.93
2022-08-21T11:16:42.830Z,23.99
2022-08-21T11:21:51.963Z,24.08
2022-08-21T11:27:00.262Z,24.10
2022-08-21T11:32:08.175Z,24.07
2022-08-21T11:37:13.974Z,24.10
2022-08-21T11:42:10.615Z,24.11
2022-08-21T11:47:10.062Z,24.13
2022-08-21T11:52:24.529Z,24.18
2022-08-21T11:57:38.978Z,24.19
2022-08-21T12:02:36.362Z,24.18
2022-08-21T12:07:42.820Z,24.14
2022-08-21T12:12:45.880Z,24.06
2022-08-21T12:17:51.759Z,24.13
2022-08-21T12:22:54.305Z,24.19
2022-08-21T12:27:54.380Z,24.21
2022-08-21T12:32:56.541Z,24.23
2022-08-21T12:37:57.097Z,24.34
2022-08-21T12:42:59.029Z,24.46
2022-08-21T12:48:00.292Z,24.57
2022-08-21T12:53:00.612Z,24.63
2022-08-21T12:57:56.933Z,24.76
2022-08-21T13:02:56.204Z,24.90
2022-08-21T13:07:52.644Z,25.02
2022-08-21T13:12:49.015Z,25.14
2022-08-21T13:17:46.603Z,25.17
2022-08-21T13:22:44.010Z,25.16
2022-08-21T13:27:40.425Z,25.25
2022-08-21T13:32:38.707Z,25.32
2022-08-21T13:37:35.919Z,25.34
2022-08-21T13:42:34.397Z,25.31
2022-08-21T13:47:31.780Z,25.17
2022-08-21T13:52:28.247Z,25.04
2022-08-21T13:57:29.023Z,24.94
2022-08-21T14:02:25.417Z,24.89
2022-08-21T14:07:24.681Z,24.82
2022-08-21T14:12:28.067Z,24.84
2022-08-21T14:23:51.238Z,25.01
2022-08-21T14:28:50.024Z,25.03
2022-08-21T14:33:54.476Z,24.91
2022-08-21T14:38:52.625Z,24.80
2022-08-21T14:44:01.235Z,24.78
2022-08-21T14:49:06.454Z,24.76
2022-08-21T14:54:02.897Z,24.76
2022-08-21T14:59:01.969Z,24.76
2022-08-21T15:03:58.393Z,24.77
2022-08-21T15:09:00.071Z,24.75
2022-08-21T15:13:57.497Z,24.71
2022-08-21T15:18:53.901Z,24.71
2022-08-21T15:23:51.323Z,24.69
2022-08-21T15:28:49.728Z,24.75
2022-08-21T15:33:46.139Z,24.75
2022-08-21T15:38:42.556Z,24.79
2022-08-21T15:43:44.649Z,24.79
2022-08-21T15:48:43.911Z,24.76
2022-08-21T15:53:52.767Z,24.77
2022-08-21T15:58:50.041Z,24.77
2022-08-21T16:03:49.360Z,24.74
2022-08-21T16:08:49.608Z,24.69
2022-08-21T16:13:46.172Z,24.66
2022-08-21T16:18:42.797Z,24.65
2022-08-21T16:23:41.429Z,24.64
2022-08-21T16:28:40.415Z,24.62
2022-08-21T16:33:42.329Z,24.62
2022-08-21T16:38:41.845Z,24.62
2022-08-21T16:43:38.853Z,24.61
2022-08-21T16:48:59.409Z,24.59
2022-08-21T16:54:00.741Z,24.54
2022-08-21T16:59:29.273Z,24.49
2022-08-21T17:04:27.997Z,24.45
2022-08-21T17:09:24.578Z,24.42
2022-08-21T17:14:22.107Z,24.38
2022-08-21T17:19:19.799Z,24.35
2022-08-21T17:24:16.193Z,24.30
2022-08-21T17:29:14.502Z,24.25
2022-08-21T17:34:11.872Z,24.21
2022-08-21T17:39:09.784Z,24.16
2022-08-21T17:44:07.233Z,24.09
2022-08-21T17:49:03.643Z,24.03
2022-08-21T17:54:00.072Z,23.96
2022-08-21T17:58:56.436Z,23.87
2022-08-21T18:03:52.878Z,23.79
2022-08-21T18:08:49.172Z,23.71
2022-08-21T18:13:45.511Z,23.63
2022-08-21T18:18:42.763Z,23.53
2022-08-21T18:23:43.786Z,23.45
2022-08-21T18:28:40.939Z,23.36
2022-08-21T18:33:37.923Z,23.27
2022-08-21T18:38:35.533Z,23.20
2022-08-21T18:43:31.944Z,23.12
2022-08-21T18:48:29.435Z,23.05
2022-08-21T18:53:27.416Z,22.97
2022-08-21T18:58:24.502Z,22.91
2022-08-21T19:03:23.669Z,22.86
2022-08-21T19:08:21.224Z,22.77
2022-08-21T19:13:19.334Z,22.72
2022-08-21T19:18:16.176Z,22.66
2022-08-21T19:23:14.083Z,22.61
2022-08-21T19:28:11.885Z,22.54
2022-08-21T19:33:08.283Z,22.51
2022-08-21T19:38:05.056Z,22.46
2022-08-21T19:43:01.480Z,22.41
2022-08-21T19:53:14.513Z,22.30
2022-08-21T19:58:19.036Z,22.27
2022-08-21T20:03:21.154Z,22.23
2022-08-21T20:08:20.327Z,22.20
2022-08-21T20:13:17.749Z,22.16
2022-08-21T20:18:15.189Z,22.10
2022-08-21T20:23:11.589Z,22.08
2022-08-21T20:28:07.992Z,22.07
2022-08-21T20:33:04.652Z,22.06
2022-08-21T20:38:01.109Z,22.05
